createdAt,value
2022-10-18T00:00:43.609Z,93.89
2022-10-18T00:01:43.603Z,94.09
2022-10-18T00:02:44.591Z,93.79
2022-10-18T00:04:43.580Z,94.49
2022-10-18T00:05:43.555Z,94.39
2022-10-18T00:06:43.711Z,94.24
2022-10-18T00:07:43.539Z,94.39
2022-10-18T00:08:43.524Z,94.39
2022-10-18T00:09:43.527Z,94.44
2022-10-18T00:10:43.504Z,95.25
2022-10-18T00:11:43.493Z,94.19
2022-10-18T00:12:43.564Z,94.54
2022-10-18T00:13:43.478Z,95.14
2022-10-18T00:14:43.473Z,95.45
2022-10-18T00:15:43.458Z,94.80
2022-10-18T00:16:43.445Z,95.14
2022-10-18T00:17:43.434Z,95.14
2022-10-18T00:18:43.440Z,96.00
2022-10-18T00:19:43.415Z,95.70
2022-10-18T00:20:43.406Z,95.90
2022-10-18T00:22:43.385Z,96.80
2022-10-18T00:23:43.387Z,96.40
2022-10-18T00:24:43.365Z,96.85
2022-10-18T00:25:43.354Z,96.25
2022-10-18T00:26:43.346Z,96.50
2022-10-18T00:27:43.332Z,96.25
2022-10-18T00:28:43.386Z,96.45
2022-10-18T00:29:43.316Z,96.20
2022-10-18T00:30:43.340Z,96.60
2022-10-18T00:31:43.298Z,96.70
2022-10-18T00:32:43.289Z,96.40
2022-10-18T00:33:43.292Z,96.10
2022-10-18T00:34:43.270Z,96.40
2022-10-18T00:35:43.262Z,96.70
2022-10-18T00:36:43.247Z,95.49
2022-10-18T00:37:43.263Z,96.50
2022-10-18T00:38:43.238Z,96.50
2022-10-18T00:39:43.256Z,96.30
2022-10-18T00:40:43.209Z,96.30
2022-10-18T00:41:43.200Z,96.20
2022-10-18T00:42:43.187Z,96.60
2022-10-18T00:43:43.189Z,96.80
2022-10-18T00:44:43.171Z,96.50
2022-10-18T00:45:43.161Z,96.10
2022-10-18T00:46:43.155Z,96.80
2022-10-18T00:47:43.141Z,96.80
2022-10-18T00:48:43.161Z,96.00
2022-10-18T00:49:43.114Z,96.30
2022-10-18T00:50:43.107Z,96.00
2022-10-18T00:51:43.097Z,96.66
2022-10-18T00:52:43.089Z,96.80
2022-10-18T00:53:43.089Z,96.65
2022-10-18T00:54:43.066Z,96.25
2022-10-18T00:55:43.056Z,96.55
2022-10-18T00:56:43.046Z,96.55
2022-10-18T00:57:43.119Z,96.34
2022-10-18T00:58:43.039Z,96.45
2022-10-18T00:59:43.021Z,96.95
2022-10-18T01:00:43.009Z,96.85
2022-10-18T01:01:43.287Z,96.89
2022-10-18T01:02:42.989Z,96.59
2022-10-18T01:03:42.984Z,96.45
2022-10-18T01:04:53.152Z,96.65
2022-10-18T01:05:42.959Z,96.49
2022-10-18T01:06:43.031Z,97.40
2022-10-18T01:07:42.946Z,96.80
2022-10-18T01:08:42.939Z,96.59
2022-10-18T01:09:42.914Z,97.60
2022-10-18T01:10:42.909Z,97.30
2022-10-18T01:11:42.897Z,97.40
2022-10-18T01:12:42.890Z,97.50
2022-10-18T01:13:42.889Z,97.20
2022-10-18T01:14:42.867Z,96.69
2022-10-18T01:15:42.856Z,96.59
2022-10-18T01:16:42.850Z,96.39
2022-10-18T01:17:42.845Z,96.59
2022-10-18T01:18:42.841Z,95.98
2022-10-18T01:19:42.823Z,96.14
2022-10-18T01:20:42.812Z,96.69
2022-10-18T01:21:42.803Z,96.59
2022-10-18T01:22:42.797Z,96.49
2022-10-18T01:23:42.797Z,96.64
2022-10-18T01:24:42.771Z,96.74
2022-10-18T01:25:42.755Z,97.14
2022-10-18T01:26:43.751Z,96.13
2022-10-18T01:27:42.739Z,97.14
2022-10-18T01:28:42.796Z,96.44
2022-10-18T01:29:42.725Z,96.23
2022-10-18T01:30:42.717Z,96.54
2022-10-18T01:31:42.704Z,96.08
2022-10-18T01:32:42.747Z,96.98
2022-10-18T01:33:42.705Z,97.69
2022-10-18T01:34:42.678Z,97.39
2022-10-18T01:35:42.666Z,97.49
2022-10-18T01:36:42.656Z,97.69
2022-10-18T01:37:42.639Z,97.39
2022-10-18T01:38:42.644Z,96.93
2022-10-18T01:39:42.624Z,97.64
2022-10-18T01:40:42.611Z,98.25
2022-10-18T01:41:42.603Z,98.85
2022-10-18T01:42:42.594Z,98.96
2022-10-18T01:43:42.597Z,98.61
2022-10-18T01:44:42.575Z,98.45
2022-10-18T01:45:42.562Z,98.96
2022-10-18T01:46:42.555Z,98.96
2022-10-18T01:47:42.543Z,98.50
2022-10-18T01:48:42.545Z,98.00
2022-10-18T01:49:42.522Z,98.20
2022-10-18T01:50:42.513Z,98.81
2022-10-18T01:51:42.507Z,98.91
2022-10-18T01:52:42.495Z,98.81
2022-10-18T01:53:42.493Z,98.30
2022-10-18T01:54:42.515Z,97.80
2022-10-18T01:55:42.466Z,98.20
2022-10-18T01:56:42.455Z,97.96
2022-10-18T01:57:42.444Z,97.45
2022-10-18T01:58:42.445Z,97.75
2022-10-18T01:59:42.426Z,98.46
2022-10-18T02:00:42.413Z,97.96
2022-10-18T02:01:42.419Z,97.75
2022-10-18T02:02:42.398Z,97.80
2022-10-18T02:03:42.392Z,97.85
2022-10-18T02:04:42.373Z,97.65
2022-10-18T02:05:42.454Z,97.25
2022-10-18T02:06:42.352Z,97.25
2022-10-18T02:07:42.341Z,98.05
2022-10-18T02:08:42.411Z,98.56
2022-10-18T02:09:43.320Z,95.67
2022-10-18T02:10:42.315Z,97.44
2022-10-18T02:11:42.302Z,96.17
2022-10-18T02:12:42.297Z,97.89
2022-10-18T02:13:42.367Z,97.89
2022-10-18T02:14:42.273Z,97.99
2022-10-18T02:15:42.262Z,97.89
2022-10-18T02:16:42.253Z,97.89
2022-10-18T02:17:42.248Z,98.09
2022-10-18T02:18:42.261Z,97.99
2022-10-18T02:19:42.225Z,97.99
2022-10-18T02:20:42.217Z,98.55
2022-10-18T02:21:42.207Z,97.94
2022-10-18T02:22:42.197Z,97.64
2022-10-18T02:23:42.199Z,97.74
2022-10-18T02:24:42.175Z,97.34
2022-10-18T02:25:42.165Z,98.40
2022-10-18T02:26:42.156Z,97.90
2022-10-18T02:27:42.149Z,97.69
2022-10-18T02:28:42.144Z,97.69
2022-10-18T02:29:42.125Z,97.39
2022-10-18T02:30:42.115Z,97.29
2022-10-18T02:31:42.119Z,97.19
2022-10-18T02:32:42.095Z,97.09
2022-10-18T02:33:42.098Z,97.19
2022-10-18T02:34:42.078Z,97.54
2022-10-18T02:35:42.094Z,98.25
2022-10-18T02:36:42.059Z,97.79
2022-10-18T02:37:42.050Z,97.99
2022-10-18T02:38:42.046Z,98.39
2022-10-18T02:39:42.024Z,98.05
2022-10-18T02:40:42.019Z,98.55
2022-10-18T02:41:42.008Z,97.85
2022-10-18T02:42:42.001Z,97.74
2022-10-18T02:43:41.998Z,98.55
2022-10-18T02:44:41.977Z,97.74
2022-10-18T02:45:41.971Z,97.94
2022-10-18T02:46:41.959Z,97.74
2022-10-18T02:47:41.950Z,97.60
2022-10-18T02:48:41.953Z,97.64
2022-10-18T02:49:41.930Z,97.29
2022-10-18T02:50:41.921Z,97.39
2022-10-18T02:51:41.908Z,96.48
2022-10-18T02:52:41.899Z,96.63
2022-10-18T02:53:41.903Z,96.48
2022-10-18T02:54:41.882Z,96.28
2022-10-18T02:55:41.882Z,96.48
2022-10-18T02:56:41.891Z,96.69
2022-10-18T02:57:41.852Z,96.78
2022-10-18T02:58:41.854Z,96.98
2022-10-18T02:59:41.828Z,96.98
2022-10-18T03:00:41.850Z,96.58
2022-10-18T03:01:41.839Z,96.28
2022-10-18T03:02:41.802Z,96.18
2022-10-18T03:03:41.807Z,96.18
2022-10-18T03:04:41.785Z,95.98
2022-10-18T03:05:41.772Z,96.28
2022-10-18T03:06:41.759Z,95.78
2022-10-18T03:07:41.749Z,95.78
2022-10-18T03:08:41.748Z,95.78
2022-10-18T03:09:42.036Z,95.78
2022-10-18T03:10:41.721Z,95.67
2022-10-18T03:11:41.712Z,95.53
2022-10-18T03:12:41.700Z,95.27
2022-10-18T03:13:41.707Z,95.62
2022-10-18T03:14:41.673Z,95.72
2022-10-18T03:15:42.672Z,95.42
2022-10-18T03:16:41.661Z,96.02
2022-10-18T03:17:41.653Z,95.67
2022-10-18T03:18:41.655Z,95.92
2022-10-18T03:19:41.635Z,95.98
2022-10-18T03:20:41.666Z,96.38
2022-10-18T03:21:41.612Z,95.67
2022-10-18T03:22:41.602Z,96.53
2022-10-18T03:23:41.603Z,96.53
2022-10-18T03:24:41.582Z,96.12
2022-10-18T03:25:44.215Z,96.27
2022-10-18T03:26:41.560Z,96.88
2022-10-18T03:27:41.553Z,96.57
2022-10-18T03:28:41.576Z,96.37
2022-10-18T03:29:41.528Z,97.28
2022-10-18T03:30:41.517Z,97.03
2022-10-18T03:31:41.511Z,97.03
2022-10-18T03:32:41.502Z,96.53
2022-10-18T03:33:41.606Z,97.03
2022-10-18T03:34:41.484Z,96.93
2022-10-18T03:35:41.475Z,96.53
2022-10-18T03:36:41.462Z,96.22
2022-10-18T03:37:41.449Z,96.57
2022-10-18T03:38:41.451Z,96.22
2022-10-18T03:39:41.429Z,95.42
2022-10-18T03:40:41.420Z,95.82
2022-10-18T03:41:41.414Z,95.42
2022-10-18T03:42:41.414Z,95.82
2022-10-18T03:43:41.405Z,95.62
2022-10-18T03:44:41.382Z,95.11
2022-10-18T03:45:41.372Z,95.82
2022-10-18T03:46:41.364Z,95.21
2022-10-18T03:47:41.355Z,94.75
2022-10-18T03:48:41.353Z,95.36
2022-10-18T03:49:41.339Z,96.37
2022-10-18T03:50:41.320Z,96.27
2022-10-18T03:51:41.309Z,96.27
2022-10-18T03:52:41.302Z,96.57
2022-10-18T03:53:41.300Z,96.67
2022-10-18T03:54:41.283Z,95.97
2022-10-18T03:55:41.270Z,96.63
2022-10-18T03:56:41.258Z,96.57
2022-10-18T03:57:41.253Z,96.37
2022-10-18T03:58:41.255Z,96.53
2022-10-18T03:59:41.273Z,96.22
2022-10-18T04:00:41.222Z,95.56
2022-10-18T04:01:41.250Z,96.02
2022-10-18T04:02:41.206Z,95.51
2022-10-18T04:03:41.207Z,95.51
2022-10-18T04:04:41.204Z,95.31
2022-10-18T04:05:41.178Z,95.62
2022-10-18T04:06:41.162Z,95.51
2022-10-18T04:07:41.170Z,95.11
2022-10-18T04:08:41.166Z,95.82
2022-10-18T04:09:41.132Z,95.21
2022-10-18T04:10:41.126Z,95.31
2022-10-18T04:11:41.114Z,94.91
2022-10-18T04:12:41.105Z,95.21
2022-10-18T04:13:41.112Z,95.31
2022-10-18T04:14:41.090Z,95.56
2022-10-18T04:15:41.078Z,97.08
2022-10-18T04:16:41.069Z,97.33
2022-10-18T04:17:41.058Z,97.08
2022-10-18T04:18:41.057Z,97.73
2022-10-18T04:19:41.035Z,97.79
2022-10-18T04:20:41.034Z,97.69
2022-10-18T04:21:41.016Z,97.58
2022-10-18T04:22:41.009Z,97.69
2022-10-18T04:23:41.013Z,97.79
2022-10-18T04:24:40.989Z,97.08
2022-10-18T04:25:41.013Z,97.08
2022-10-18T04:26:40.972Z,96.88
2022-10-18T04:27:40.965Z,97.28
2022-10-18T04:28:41.011Z,97.28
2022-10-18T04:29:40.943Z,97.13
2022-10-18T04:30:40.935Z,97.28
2022-10-18T04:31:40.948Z,97.33
2022-10-18T04:32:40.909Z,97.33
2022-10-18T04:33:40.911Z,97.49
2022-10-18T04:34:40.892Z,97.18
2022-10-18T04:35:40.889Z,97.79
2022-10-18T04:36:40.870Z,97.69
2022-10-18T04:37:40.862Z,97.58
2022-10-18T04:38:40.863Z,97.33
2022-10-18T04:39:40.843Z,97.18
2022-10-18T04:40:40.828Z,97.18
2022-10-18T04:41:40.822Z,96.92
2022-10-18T04:42:40.810Z,97.33
2022-10-18T04:43:40.835Z,97.33
2022-10-18T04:44:40.787Z,97.63
2022-10-18T04:45:40.777Z,97.63
2022-10-18T04:46:40.765Z,97.53
2022-10-18T04:47:40.759Z,97.79
2022-10-18T04:48:40.763Z,97.58
2022-10-18T04:49:40.734Z,97.79
2022-10-18T04:50:40.727Z,97.08
2022-10-18T04:51:40.717Z,97.49
2022-10-18T04:52:40.735Z,96.88
2022-10-18T04:53:40.705Z,97.49
2022-10-18T04:54:40.683Z,97.38
2022-10-18T04:55:40.678Z,96.98
2022-10-18T04:56:40.664Z,97.18
2022-10-18T04:57:40.657Z,96.57
2022-10-18T04:58:40.653Z,96.88
2022-10-18T04:59:40.636Z,97.38
2022-10-18T05:00:40.622Z,96.78
2022-10-18T05:01:40.691Z,97.13
2022-10-18T05:02:40.599Z,97.53
2022-10-18T05:03:40.602Z,98.65
2022-10-18T05:04:40.582Z,97.78
2022-10-18T05:06:00.140Z,99.10
2022-10-18T05:06:42.565Z,99.65
2022-10-18T05:07:40.555Z,99.99
2022-10-18T05:08:40.553Z,99.99
2022-10-18T05:09:40.536Z,99.99
2022-10-18T05:10:40.520Z,99.99
2022-10-18T05:11:40.511Z,99.99
2022-10-18T05:12:40.502Z,99.99
2022-10-18T05:13:40.504Z,99.99
2022-10-18T05:14:40.482Z,99.99
2022-10-18T05:15:40.473Z,99.99
2022-10-18T05:16:40.482Z,99.99
2022-10-18T05:17:40.444Z,99.86
2022-10-18T05:18:40.452Z,99.55
2022-10-18T05:19:40.430Z,99.55
2022-10-18T05:20:40.445Z,98.95
2022-10-18T05:21:40.412Z,98.74
2022-10-18T05:22:40.396Z,98.85
2022-10-18T05:23:40.405Z,99.05
2022-10-18T05:24:40.388Z,98.74
2022-10-18T05:25:40.384Z,99.15
2022-10-18T05:26:40.366Z,98.14
2022-10-18T05:27:40.354Z,98.24
2022-10-18T05:28:41.256Z,97.58
2022-10-18T05:29:41.336Z,97.58
2022-10-18T05:30:40.326Z,97.18
2022-10-18T05:31:40.313Z,98.65
2022-10-18T05:32:40.305Z,97.94
2022-10-18T05:33:40.302Z,97.43
2022-10-18T05:34:40.289Z,98.60
2022-10-18T05:35:40.278Z,98.19
2022-10-18T05:36:40.267Z,98.14
2022-10-18T05:37:40.255Z,97.99
2022-10-18T05:38:40.280Z,97.89
2022-10-18T05:39:40.240Z,97.79
2022-10-18T05:40:40.225Z,97.49
2022-10-18T05:41:40.215Z,97.58
2022-10-18T05:42:40.253Z,97.79
2022-10-18T05:43:40.195Z,97.49
2022-10-18T05:44:40.196Z,97.69
2022-10-18T05:45:40.184Z,97.58
2022-10-18T05:46:40.161Z,97.08
2022-10-18T05:47:40.153Z,97.28
2022-10-18T05:48:40.134Z,96.98
2022-10-18T05:49:40.143Z,96.98
2022-10-18T05:50:40.475Z,96.78
2022-10-18T05:51:40.114Z,97.18
2022-10-18T05:52:40.104Z,96.98
2022-10-18T05:53:40.089Z,96.67
2022-10-18T05:54:40.088Z,96.88
2022-10-18T05:55:40.069Z,97.08
2022-10-18T05:56:40.135Z,97.08
2022-10-18T05:57:40.046Z,97.58
2022-10-18T05:58:40.038Z,97.08
2022-10-18T05:59:40.036Z,97.28
2022-10-18T06:00:40.021Z,97.73
2022-10-18T06:01:40.011Z,98.18
2022-10-18T06:02:40.029Z,98.59
2022-10-18T06:03:39.986Z,98.90
2022-10-18T06:04:39.997Z,99.30
2022-10-18T06:06:40.061Z,99.10
2022-10-18T06:07:39.943Z,99.35
2022-10-18T06:08:39.933Z,99.50
2022-10-18T06:09:39.936Z,99.65
2022-10-18T06:10:39.965Z,99.75
2022-10-18T06:11:39.908Z,99.95
2022-10-18T06:12:39.897Z,99.19
2022-10-18T06:13:39.890Z,99.91
2022-10-18T06:14:39.885Z,99.40
2022-10-18T06:15:39.868Z,99.30
2022-10-18T06:16:39.893Z,98.74
2022-10-18T06:17:39.851Z,98.90
2022-10-18T06:18:39.838Z,98.99
2022-10-18T06:19:39.834Z,99.25
2022-10-18T06:20:39.820Z,98.85
2022-10-18T06:21:39.801Z,98.65
2022-10-18T06:22:39.791Z,99.05
2022-10-18T06:23:39.786Z,98.03
2022-10-18T06:24:39.783Z,98.54
2022-10-18T06:25:39.763Z,98.24
2022-10-18T06:26:39.753Z,98.54
2022-10-18T06:27:39.744Z,97.94
2022-10-18T06:28:39.762Z,98.65
2022-10-18T06:29:39.742Z,98.69
2022-10-18T06:30:39.711Z,98.94
2022-10-18T06:31:39.707Z,99.99
2022-10-18T06:32:39.690Z,99.99
2022-10-18T06:33:39.686Z,99.99
2022-10-18T06:34:39.680Z,99.99
2022-10-18T06:35:39.663Z,99.99
2022-10-18T06:36:39.681Z,99.99
2022-10-18T06:37:39.705Z,99.99
2022-10-18T06:38:39.666Z,99.99
2022-10-18T06:39:39.626Z,99.99
2022-10-18T06:40:39.612Z,99.99
2022-10-18T06:41:39.595Z,99.99
2022-10-18T06:42:39.595Z,99.99
2022-10-18T06:43:39.576Z,99.99
2022-10-18T06:44:39.582Z,99.99
2022-10-18T06:45:39.555Z,99.99
2022-10-18T06:46:39.544Z,99.99
2022-10-18T06:47:39.537Z,99.99
2022-10-18T06:48:39.532Z,99.99
2022-10-18T06:49:39.513Z,99.99
2022-10-18T06:50:39.501Z,99.99
2022-10-18T06:51:39.485Z,99.99
2022-10-18T06:52:40.485Z,99.99
2022-10-18T06:53:44.183Z,99.99
2022-10-18T06:54:41.456Z,99.99
2022-10-18T06:55:39.451Z,99.99
2022-10-18T06:56:39.434Z,99.99
2022-10-18T06:57:39.431Z,99.99
2022-10-18T06:58:39.434Z,99.99
2022-10-18T06:59:39.494Z,99.99
2022-10-18T07:00:39.397Z,99.99
2022-10-18T07:01:39.419Z,99.99
2022-10-18T07:02:39.375Z,99.99
2022-10-18T07:03:39.376Z,99.99
2022-10-18T07:04:39.375Z,99.99
2022-10-18T07:06:05.258Z,99.99
2022-10-18T07:06:39.330Z,99.99
2022-10-18T07:07:39.322Z,99.99
2022-10-18T07:08:39.329Z,99.99
2022-10-18T07:09:39.307Z,99.99
2022-10-18T07:10:39.294Z,99.99
2022-10-18T07:11:39.288Z,99.99
2022-10-18T07:12:39.279Z,99.46
2022-10-18T07:13:39.274Z,99.35
2022-10-18T07:14:39.252Z,99.55
2022-10-18T07:15:39.254Z,99.15
2022-10-18T07:16:39.240Z,99.35
2022-10-18T07:17:39.222Z,99.25
2022-10-18T07:18:39.223Z,99.15
2022-10-18T07:19:39.206Z,99.21
2022-10-18T07:20:39.187Z,99.01
2022-10-18T07:21:39.184Z,99.01
2022-10-18T07:22:39.183Z,98.50
2022-10-18T07:23:39.173Z,98.80
2022-10-18T07:24:39.152Z,98.14
2022-10-18T07:25:39.137Z,97.89
2022-10-18T07:26:39.128Z,97.79
2022-10-18T07:27:39.116Z,98.09
2022-10-18T07:28:39.152Z,98.39
2022-10-18T07:29:39.098Z,98.09
2022-10-18T07:30:39.083Z,98.45
2022-10-18T07:31:39.100Z,97.85
2022-10-18T07:32:39.072Z,97.89
2022-10-18T07:33:39.068Z,97.99
2022-10-18T07:34:39.044Z,97.64
2022-10-18T07:35:39.037Z,97.74
2022-10-18T07:36:39.023Z,97.09
2022-10-18T07:37:39.014Z,96.48
2022-10-18T07:38:39.001Z,97.09
2022-10-18T07:39:39.002Z,97.29
2022-10-18T07:40:38.984Z,96.48
2022-10-18T07:41:38.972Z,96.69
2022-10-18T07:42:39.026Z,96.69
2022-10-18T07:43:38.977Z,96.78
2022-10-18T07:44:38.956Z,96.89
2022-10-18T07:45:38.938Z,96.08
2022-10-18T07:46:38.923Z,96.13
2022-10-18T07:47:39.279Z,95.93
2022-10-18T07:48:38.899Z,96.23
2022-10-18T07:49:38.904Z,95.87
2022-10-18T07:50:38.882Z,95.57
2022-10-18T07:51:38.870Z,95.32
2022-10-18T07:52:38.861Z,95.37
2022-10-18T07:53:38.854Z,95.12
2022-10-18T07:54:38.914Z,95.17
2022-10-18T07:55:38.832Z,95.87
2022-10-18T07:56:38.822Z,95.78
2022-10-18T07:57:38.810Z,95.37
2022-10-18T07:58:38.801Z,95.37
2022-10-18T07:59:38.807Z,95.87
2022-10-18T08:00:38.793Z,96.38
2022-10-18T08:01:38.801Z,95.92
2022-10-18T08:02:38.768Z,96.18
2022-10-18T08:03:38.754Z,96.58
2022-10-18T08:04:38.752Z,97.03
2022-10-18T08:05:38.734Z,96.58
2022-10-18T08:06:38.722Z,96.78
2022-10-18T08:07:38.715Z,96.89
2022-10-18T08:08:38.704Z,96.69
2022-10-18T08:09:38.710Z,96.98
2022-10-18T08:10:38.702Z,96.69
2022-10-18T08:11:38.670Z,96.58
2022-10-18T08:12:38.665Z,96.89
2022-10-18T08:13:38.652Z,96.18
2022-10-18T08:14:38.650Z,95.87
2022-10-18T08:15:38.631Z,95.78
2022-10-18T08:16:38.626Z,95.92
2022-10-18T08:17:38.612Z,95.92
2022-10-18T08:18:38.599Z,97.34
2022-10-18T08:19:44.616Z,97.38
2022-10-18T08:20:39.575Z,97.58
2022-10-18T08:21:38.568Z,98.19
2022-10-18T08:22:38.558Z,98.54
2022-10-18T08:23:38.547Z,98.29
2022-10-18T08:24:38.548Z,97.99
2022-10-18T08:25:38.537Z,98.19
2022-10-18T08:26:38.523Z,98.19
2022-10-18T08:27:38.503Z,98.14
2022-10-18T08:28:38.528Z,98.09
2022-10-18T08:29:38.534Z,97.94
2022-10-18T08:30:38.490Z,98.09
2022-10-18T08:31:38.464Z,97.99
2022-10-18T08:32:38.453Z,98.24
2022-10-18T08:33:38.446Z,99.35
2022-10-18T08:35:39.422Z,98.60
2022-10-18T08:36:38.412Z,98.90
2022-10-18T08:37:38.399Z,98.54
2022-10-18T08:38:38.388Z,98.85
2022-10-18T08:39:38.396Z,98.70
2022-10-18T08:40:38.373Z,98.44
2022-10-18T08:41:38.386Z,98.70
2022-10-18T08:42:38.351Z,98.39
2022-10-18T08:43:38.364Z,98.80
2022-10-18T08:44:38.335Z,97.89
2022-10-18T08:45:42.522Z,98.50
2022-10-18T08:46:39.308Z,98.90
2022-10-18T08:47:38.303Z,98.29
2022-10-18T08:48:38.301Z,98.50
2022-10-18T08:49:38.389Z,98.50
2022-10-18T08:50:38.269Z,97.85
2022-10-18T08:51:38.262Z,98.75
2022-10-18T08:52:38.246Z,98.55
2022-10-18T08:53:39.962Z,97.85
2022-10-18T08:54:38.229Z,98.65
2022-10-18T08:55:38.219Z,97.54
2022-10-18T08:56:38.211Z,97.74
2022-10-18T08:57:38.199Z,97.64
2022-10-18T08:58:38.199Z,97.74
2022-10-18T08:59:38.180Z,97.64
2022-10-18T09:00:38.172Z,97.39
2022-10-18T09:01:38.238Z,97.49
2022-10-18T09:02:38.157Z,97.19
2022-10-18T09:03:38.235Z,96.38
2022-10-18T09:04:38.130Z,96.69
2022-10-18T09:05:38.119Z,96.48
2022-10-18T09:06:38.111Z,96.48
2022-10-18T09:07:38.097Z,96.48
2022-10-18T09:08:38.098Z,96.28
2022-10-18T09:09:38.086Z,96.44
2022-10-18T09:10:38.068Z,96.34
2022-10-18T09:11:38.068Z,96.64
2022-10-18T09:12:38.050Z,96.74
2022-10-18T09:13:38.061Z,97.05
2022-10-18T09:14:38.028Z,95.58
2022-10-18T09:15:38.018Z,95.78
2022-10-18T09:16:38.009Z,95.93
2022-10-18T09:17:38.000Z,95.89
2022-10-18T09:18:38.003Z,95.78
2022-10-18T09:19:37.978Z,95.58
2022-10-18T09:20:37.968Z,95.68
2022-10-18T09:21:37.960Z,95.68
2022-10-18T09:22:37.946Z,95.48
2022-10-18T09:23:37.944Z,95.78
2022-10-18T09:24:37.970Z,95.38
2022-10-18T09:25:37.917Z,95.23
2022-10-18T09:26:37.907Z,95.23
2022-10-18T09:27:37.894Z,95.78
2022-10-18T09:28:37.969Z,95.03
2022-10-18T09:29:37.896Z,94.53
2022-10-18T09:30:37.869Z,94.17
2022-10-18T09:31:37.857Z,94.02
2022-10-18T09:32:37.845Z,94.23
2022-10-18T09:33:37.836Z,94.17
2022-10-18T09:34:37.834Z,94.02
2022-10-18T09:35:37.817Z,94.02
2022-10-18T09:36:37.808Z,93.92
2022-10-18T09:37:37.794Z,94.23
2022-10-18T09:38:37.782Z,93.82
2022-10-18T09:39:37.787Z,93.72
2022-10-18T09:40:37.760Z,94.18
2022-10-18T09:41:37.752Z,93.88
2022-10-18T09:42:37.741Z,93.77
2022-10-18T09:43:37.732Z,93.88
2022-10-18T09:44:37.735Z,94.18
2022-10-18T09:45:37.714Z,94.48
2022-10-18T09:46:37.707Z,95.03
2022-10-18T09:47:37.708Z,95.23
2022-10-18T09:48:37.686Z,96.19
2022-10-18T09:49:37.693Z,96.89
2022-10-18T09:50:37.675Z,96.49
2022-10-18T09:51:37.659Z,96.39
2022-10-18T09:52:37.643Z,96.69
2022-10-18T09:53:37.635Z,97.05
2022-10-18T09:54:37.637Z,96.70
2022-10-18T09:55:37.615Z,97.05
2022-10-18T09:56:40.854Z,97.16
2022-10-18T09:57:37.591Z,96.95
2022-10-18T09:58:37.617Z,97.01
2022-10-18T09:59:37.581Z,96.70
2022-10-18T10:00:37.563Z,96.45
2022-10-18T10:01:37.556Z,94.84
2022-10-18T10:02:37.585Z,94.08
2022-10-18T10:03:37.535Z,93.93
2022-10-18T10:04:37.536Z,94.64
2022-10-18T10:05:37.515Z,95.14
2022-10-18T10:06:37.504Z,95.30
2022-10-18T10:07:37.899Z,95.10
2022-10-18T10:08:37.485Z,94.80
2022-10-18T10:09:37.484Z,93.79
2022-10-18T10:10:38.463Z,92.88
2022-10-18T10:11:37.454Z,93.18
2022-10-18T10:12:37.452Z,92.98
2022-10-18T10:13:37.463Z,91.42
2022-10-18T10:14:37.428Z,92.07
2022-10-18T10:15:39.413Z,91.91
2022-10-18T10:16:37.407Z,92.77
2022-10-18T10:17:37.397Z,94.28
2022-10-18T10:18:37.394Z,93.57
2022-10-18T10:19:37.376Z,93.43
2022-10-18T10:20:37.364Z,93.63
2022-10-18T10:21:37.349Z,93.73
2022-10-18T10:22:37.364Z,93.69
2022-10-18T10:23:37.348Z,93.18
2022-10-18T10:24:37.325Z,92.27
2022-10-18T10:25:37.315Z,92.18
2022-10-18T10:26:37.306Z,91.83
2022-10-18T10:27:37.294Z,91.06
2022-10-18T10:28:37.431Z,91.97
2022-10-18T10:29:44.361Z,91.93
2022-10-18T10:30:39.269Z,91.93
2022-10-18T10:31:37.262Z,91.83
2022-10-18T10:32:37.276Z,91.33
2022-10-18T10:33:37.260Z,90.36
2022-10-18T10:34:39.830Z,91.37
2022-10-18T10:35:54.267Z,91.06
2022-10-18T10:36:39.207Z,91.06
2022-10-18T10:37:37.212Z,91.22
2022-10-18T10:38:37.200Z,91.13
2022-10-18T10:39:37.178Z,90.92
2022-10-18T10:40:37.169Z,91.33
2022-10-18T10:41:37.155Z,90.92
2022-10-18T10:42:37.150Z,92.43
2022-10-18T10:43:38.880Z,93.04
2022-10-18T10:44:38.128Z,92.74
2022-10-18T10:45:37.114Z,91.53
2022-10-18T10:46:37.107Z,91.53
2022-10-18T10:47:37.100Z,91.18
2022-10-18T10:48:37.102Z,90.78
2022-10-18T10:49:41.327Z,90.92
2022-10-18T10:50:39.408Z,91.38
2022-10-18T10:51:37.062Z,90.88
2022-10-18T10:52:37.489Z,90.78
2022-10-18T10:53:37.064Z,91.69
2022-10-18T10:54:37.034Z,92.19
2022-10-18T10:55:37.021Z,90.48
2022-10-18T10:56:37.014Z,91.18
2022-10-18T10:57:37.000Z,90.07
2022-10-18T10:58:37.004Z,90.17
2022-10-18T10:59:37.020Z,89.83
2022-10-18T11:00:36.972Z,89.63
2022-10-18T11:01:36.960Z,90.09
2022-10-18T11:02:36.947Z,89.75
2022-10-18T11:03:36.971Z,89.75
2022-10-18T11:04:36.932Z,89.14
2022-10-18T11:05:36.924Z,87.59
2022-10-18T11:06:36.914Z,86.99
2022-10-18T11:07:36.901Z,87.02
2022-10-18T11:08:36.948Z,87.39
2022-10-18T11:09:36.890Z,87.29
2022-10-18T11:10:36.874Z,87.49
2022-10-18T11:11:36.863Z,86.54
2022-10-18T11:12:36.852Z,85.53
2022-10-18T11:13:36.875Z,86.58
2022-10-18T11:14:36.834Z,86.18
2022-10-18T11:15:36.839Z,86.14
2022-10-18T11:16:36.822Z,86.34
2022-10-18T11:17:36.804Z,85.33
2022-10-18T11:18:36.822Z,84.83
2022-10-18T11:19:36.790Z,84.23
2022-10-18T11:20:36.781Z,86.44
2022-10-18T11:21:36.771Z,86.04
2022-10-18T11:22:36.760Z,85.53
2022-10-18T11:23:36.764Z,85.03
2022-10-18T11:24:36.739Z,83.73
2022-10-18T11:25:36.732Z,84.77
2022-10-18T11:26:40.984Z,83.87
2022-10-18T11:27:38.714Z,82.76
2022-10-18T11:28:36.767Z,86.32
2022-10-18T11:29:36.694Z,85.62
2022-10-18T11:30:36.686Z,84.61
2022-10-18T11:31:36.672Z,86.16
2022-10-18T11:32:36.664Z,86.46
2022-10-18T11:34:03.517Z,85.96
2022-10-18T11:34:38.656Z,85.25
2022-10-18T11:35:36.632Z,84.45
2022-10-18T11:36:36.905Z,85.86
2022-10-18T11:37:38.593Z,85.56
2022-10-18T11:38:37.601Z,86.21
2022-10-18T11:39:36.607Z,87.05
2022-10-18T11:40:36.582Z,88.36
2022-10-18T11:41:36.569Z,88.66
2022-10-18T11:42:39.783Z,86.65
2022-10-18T11:43:57.490Z,89.06
2022-10-18T11:44:38.558Z,88.86
2022-10-18T11:45:36.537Z,88.00
2022-10-18T11:46:36.525Z,87.96
2022-10-18T11:47:36.520Z,87.76
2022-10-18T11:48:36.507Z,86.65
2022-10-18T11:49:36.505Z,89.17
2022-10-18T11:50:36.487Z,86.75
2022-10-18T11:51:50.319Z,88.96
2022-10-18T11:52:38.470Z,87.15
2022-10-18T11:53:36.460Z,88.56
2022-10-18T11:54:36.519Z,87.45
2022-10-18T11:55:36.440Z,87.25
2022-10-18T11:56:36.434Z,87.41
2022-10-18T11:57:36.418Z,87.71
2022-10-18T11:58:36.456Z,89.06
2022-10-18T11:59:36.415Z,89.26
2022-10-18T12:00:36.391Z,89.23
2022-10-18T12:01:36.385Z,87.87
2022-10-18T12:02:36.644Z,87.27
2022-10-18T12:03:36.375Z,85.76
2022-10-18T12:04:40.915Z,84.25
2022-10-18T12:05:37.378Z,85.36
2022-10-18T12:06:36.338Z,85.56
2022-10-18T12:07:36.330Z,85.11
2022-10-18T12:08:36.319Z,84.81
2022-10-18T12:09:36.386Z,85.28
2022-10-18T12:10:52.577Z,83.47
2022-10-18T12:11:38.290Z,84.77
2022-10-18T12:12:36.275Z,85.62
2022-10-18T12:13:36.273Z,85.02
2022-10-18T12:14:36.277Z,86.63
2022-10-18T12:15:36.254Z,85.72
2022-10-18T12:16:51.089Z,86.93
2022-10-18T12:17:51.230Z,85.56
2022-10-18T12:18:38.223Z,86.32
2022-10-18T12:19:36.220Z,84.91
2022-10-18T12:20:36.202Z,84.61
2022-10-18T12:21:36.192Z,84.01
2022-10-18T12:22:36.180Z,83.45
2022-10-18T12:23:36.160Z,82.60
2022-10-18T12:24:37.175Z,82.70
2022-10-18T12:25:36.149Z,83.31
2022-10-18T12:26:36.142Z,84.61
2022-10-18T12:27:36.134Z,83.11
2022-10-18T12:28:36.154Z,82.64
2022-10-18T12:29:36.122Z,82.64
2022-10-18T12:30:36.101Z,84.89
2022-10-18T12:31:36.093Z,86.04
2022-10-18T12:32:36.082Z,86.24
2022-10-18T12:33:36.118Z,85.58
2022-10-18T12:34:36.094Z,87.35
2022-10-18T12:35:36.066Z,88.66
2022-10-18T12:36:36.093Z,88.76
2022-10-18T12:37:36.250Z,88.72
2022-10-18T12:38:36.021Z,85.03
2022-10-18T12:39:43.635Z,85.64
2022-10-18T12:40:38.000Z,84.94
2022-10-18T12:41:35.991Z,85.14
2022-10-18T12:42:35.989Z,85.44
2022-10-18T12:43:35.973Z,84.83
2022-10-18T12:44:35.977Z,85.54
2022-10-18T12:45:35.956Z,85.70
2022-10-18T12:46:35.951Z,85.60
2022-10-18T12:47:36.028Z,85.30
2022-10-18T12:48:35.930Z,85.10
2022-10-18T12:49:36.737Z,86.30
2022-10-18T12:50:35.918Z,85.25
2022-10-18T12:51:35.909Z,85.56
2022-10-18T12:52:35.891Z,85.36
2022-10-18T12:53:35.878Z,85.46
2022-10-18T12:54:35.875Z,83.91
2022-10-18T12:55:35.887Z,83.20
2022-10-18T12:56:35.850Z,83.76